sensor_id;sensor_type;location;lat;lon;timestamp;temperature;humidity
54158;DHT22;40065;49.894;10.358;2023-03-11T00:02:49;3.80;99.90
54158;DHT22;40065;49.894;10.358;2023-03-11T00:07:52;3.70;99.90
54158;DHT22;40065;49.894;10.358;2023-03-11T00:12:54;3.90;99.90
54158;DHT22;40065;49.894;10.358;2023-03-11T00:17:57;3.70;99.90
54158;DHT22;40065;49.894;10.358;2023-03-11T00:22:59;3.70;99.90
54158;DHT22;40065;49.894;10.358;2023-03-11T00:28:02;3.60;99.90
54158;DHT22;40065;49.894;10.358;2023-03-11T00:33:06;3.70;99.90
54158;DHT22;40065;49.894;10.358;2023-03-11T00:38:12;3.70;99.90
54158;DHT22;40065;49.894;10.358;2023-03-11T00:43:16;3.60;99.90
54158;DHT22;40065;49.894;10.358;2023-03-11T00:48:18;3.80;99.90
54158;DHT22;40065;49.894;10.358;2023-03-11T00:53:21;3.70;99.90
54158;DHT22;40065;49.894;10.358;2023-03-11T00:58:23;3.60;99.90
54158;DHT22;40065;49.894;10.358;2023-03-11T01:03:30;3.50;99.90
54158;DHT22;40065;49.894;10.358;2023-03-11T01:08:32;3.60;99.90
54158;DHT22;40065;49.894;10.358;2023-03-11T01:13:34;3.60;99.90
54158;DHT22;40065;49.894;10.358;2023-03-11T01:18:36;3.60;99.90
54158;DHT22;40065;49.894;10.358;2023-03-11T01:23:39;3.60;99.90
54158;DHT22;40065;49.894;10.358;2023-03-11T01:28:41;3.50;99.90
54158;DHT22;40065;49.894;10.358;2023-03-11T01:33:43;3.30;99.90
54158;DHT22;40065;49.894;10.358;2023-03-11T01:38:45;3.40;99.90
54158;DHT22;40065;49.894;10.358;2023-03-11T01:43:50;3.40;99.90
54158;DHT22;40065;49.894;10.358;2023-03-11T01:48:58;3.40;99.90
54158;DHT22;40065;49.894;10.358;2023-03-11T01:54:06;3.40;99.90
54158;DHT22;40065;49.894;10.358;2023-03-11T01:59:16;3.50;99.90
54158;DHT22;40065;49.894;10.358;2023-03-11T02:04:20;3.30;99.90
54158;DHT22;40065;49.894;10.358;2023-03-11T02:09:22;3.40;99.90
54158;DHT22;40065;49.894;10.358;2023-03-11T02:14:25;3.50;99.90
54158;DHT22;40065;49.894;10.358;2023-03-11T02:19:49;3.20;99.90
54158;DHT22;40065;49.894;10.358;2023-03-11T02:30:22;3.40;99.90
54158;DHT22;40065;49.894;10.358;2023-03-11T02:35:26;3.30;99.90
54158;DHT22;40065;49.894;10.358;2023-03-11T02:40:34;3.20;99.90
54158;DHT22;40065;49.894;10.358;2023-03-11T02:45:37;3.30;99.90
54158;DHT22;40065;49.894;10.358;2023-03-11T02:50:43;3.40;99.90
54158;DHT22;40065;49.894;10.358;2023-03-11T02:55:47;3.30;99.90
54158;DHT22;40065;49.894;10.358;2023-03-11T03:00:49;3.40;99.90
54158;DHT22;40065;49.894;10.358;2023-03-11T03:05:52;3.40;99.90
54158;DHT22;40065;49.894;10.358;2023-03-11T03:10:54;3.30;99.90
54158;DHT22;40065;49.894;10.358;2023-03-11T03:15:58;3.40;99.90
54158;DHT22;40065;49.894;10.358;2023-03-11T03:21:00;3.10;99.90
54158;DHT22;40065;49.894;10.358;2023-03-11T03:26:03;3.20;99.90
54158;DHT22;40065;49.894;10.358;2023-03-11T03:31:10;3.20;99.90
54158;DHT22;40065;49.894;10.358;2023-03-11T03:36:15;3.30;99.90
54158;DHT22;40065;49.894;10.358;2023-03-11T03:41:21;3.00;99.90
54158;DHT22;40065;49.894;10.358;2023-03-11T03:46:23;3.20;99.90
54158;DHT22;40065;49.894;10.358;2023-03-11T03:51:29;3.10;99.90
54158;DHT22;40065;49.894;10.358;2023-03-11T03:56:40;3.10;99.90
54158;DHT22;40065;49.894;10.358;2023-03-11T04:01:42;3.10;99.90
54158;DHT22;40065;49.894;10.358;2023-03-11T04:06:44;3.10;99.90
54158;DHT22;40065;49.894;10.358;2023-03-11T04:11:46;3.00;99.90
54158;DHT22;40065;49.894;10.358;2023-03-11T04:16:50;3.10;99.90
54158;DHT22;40065;49.894;10.358;2023-03-11T04:21:52;3.00;99.90
54158;DHT22;40065;49.894;10.358;2023-03-11T04:26:55;3.00;99.90
54158;DHT22;40065;49.894;10.358;2023-03-11T04:31:57;3.00;99.90
54158;DHT22;40065;49.894;10.358;2023-03-11T04:36:59;3.00;99.90
54158;DHT22;40065;49.894;10.358;2023-03-11T04:42:06;3.00;99.90
54158;DHT22;40065;49.894;10.358;2023-03-11T04:47:09;2.80;99.90
54158;DHT22;40065;49.894;10.358;2023-03-11T04:52:12;2.90;99.90
54158;DHT22;40065;49.894;10.358;2023-03-11T04:57:14;2.90;99.90
54158;DHT22;40065;49.894;10.358;2023-03-11T05:02:18;2.80;99.90
54158;DHT22;40065;49.894;10.358;2023-03-11T05:07:28;2.50;99.90
54158;DHT22;40065;49.894;10.358;2023-03-11T05:12:30;2.70;99.90
54158;DHT22;40065;49.894;10.358;2023-03-11T05:17:32;2.80;99.90
54158;DHT22;40065;49.894;10.358;2023-03-11T05:22:34;2.60;99.90
54158;DHT22;40065;49.894;10.358;2023-03-11T05:27:37;2.80;99.90
54158;DHT22;40065;49.894;10.358;2023-03-11T05:32:41;2.70;99.90
54158;DHT22;40065;49.894;10.358;2023-03-11T05:37:42;2.70;99.90
54158;DHT22;40065;49.894;10.358;2023-03-11T05:42:44;2.80;99.90
54158;DHT22;40065;49.894;10.358;2023-03-11T05:47:48;2.70;99.90
54158;DHT22;40065;49.894;10.358;2023-03-11T05:52:51;2.50;99.90
54158;DHT22;40065;49.894;10.358;2023-03-11T05:57:54;2.50;99.90
54158;DHT22;40065;49.894;10.358;2023-03-11T06:02:57;2.60;99.90
54158;DHT22;40065;49.894;10.358;2023-03-11T06:07:59;2.80;99.90
54158;DHT22;40065;49.894;10.358;2023-03-11T06:13:02;2.60;99.90
54158;DHT22;40065;49.894;10.358;2023-03-11T06:18:09;2.70;99.90
54158;DHT22;40065;49.894;10.358;2023-03-11T06:23:12;2.80;99.90
54158;DHT22;40065;49.894;10.358;2023-03-11T06:28:14;2.80;99.90
54158;DHT22;40065;49.894;10.358;2023-03-11T06:33:18;2.70;99.90
54158;DHT22;40065;49.894;10.358;2023-03-11T06:38:20;2.90;99.90
54158;DHT22;40065;49.894;10.358;2023-03-11T06:43:22;3.00;99.90
54158;DHT22;40065;49.894;10.358;2023-03-11T06:48:25;3.20;99.90
54158;DHT22;40065;49.894;10.358;2023-03-11T06:53:28;4.90;99.90
54158;DHT22;40065;49.894;10.358;2023-03-11T06:58:32;4.50;99.90
54158;DHT22;40065;49.894;10.358;2023-03-11T07:03:34;5.00;99.90
54158;DHT22;40065;49.894;10.358;2023-03-11T07:08:36;6.60;99.90
54158;DHT22;40065;49.894;10.358;2023-03-11T07:13:38;9.10;99.90
54158;DHT22;40065;49.894;10.358;2023-03-11T07:18:41;11.50;96.10
54158;DHT22;40065;49.894;10.358;2023-03-11T07:23:43;11.70;94.80
54158;DHT22;40065;49.894;10.358;2023-03-11T07:28:45;12.90;92.70
54158;DHT22;40065;49.894;10.358;2023-03-11T07:33:50;14.80;90.50
54158;DHT22;40065;49.894;10.358;2023-03-11T07:38:56;15.60;84.40
54158;DHT22;40065;49.894;10.358;2023-03-11T07:44:01;12.20;89.80
54158;DHT22;40065;49.894;10.358;2023-03-11T07:49:03;9.10;93.30
54158;DHT22;40065;49.894;10.358;2023-03-11T07:54:05;7.70;96.30
54158;DHT22;40065;49.894;10.358;2023-03-11T07:59:07;7.80;94.90
54158;DHT22;40065;49.894;10.358;2023-03-11T08:04:10;10.40;93.20
54158;DHT22;40065;49.894;10.358;2023-03-11T08:09:15;9.60;90.70
54158;DHT22;40065;49.894;10.358;2023-03-11T08:14:17;10.10;92.40
54158;DHT22;40065;49.894;10.358;2023-03-11T08:19:19;10.40;89.20
54158;DHT22;40065;49.894;10.358;2023-03-11T08:24:21;8.00;95.20
54158;DHT22;40065;49.894;10.358;2023-03-11T08:29:23;11.10;89.10
54158;DHT22;40065;49.894;10.358;2023-03-11T08:34:25;12.90;85.80
54158;DHT22;40065;49.894;10.358;2023-03-11T08:39:28;14.00;80.10
54158;DHT22;40065;49.894;10.358;2023-03-11T08:44:30;11.50;81.10
54158;DHT22;40065;49.894;10.358;2023-03-11T08:49:32;11.60;83.50
54158;DHT22;40065;49.894;10.358;2023-03-11T08:54:33;9.60;85.60
54158;DHT22;40065;49.894;10.358;2023-03-11T08:59:35;8.00;90.90
54158;DHT22;40065;49.894;10.358;2023-03-11T09:04:37;8.00;90.00
54158;DHT22;40065;49.894;10.358;2023-03-11T09:09:39;7.80;90.10
54158;DHT22;40065;49.894;10.358;2023-03-11T09:14:41;6.70;91.90
54158;DHT22;40065;49.894;10.358;2023-03-11T09:19:43;6.40;91.50
54158;DHT22;40065;49.894;10.358;2023-03-11T09:24:45;6.40;92.70
54158;DHT22;40065;49.894;10.358;2023-03-11T09:29:47;5.70;93.60
54158;DHT22;40065;49.894;10.358;2023-03-11T09:34:48;5.90;94.30
54158;DHT22;40065;49.894;10.358;2023-03-11T09:39:50;5.30;93.70
54158;DHT22;40065;49.894;10.358;2023-03-11T09:45:16;5.00;94.50
54158;DHT22;40065;49.894;10.358;2023-03-11T09:55:51;4.60;96.50
54158;DHT22;40065;49.894;10.358;2023-03-11T10:00:54;4.50;96.80
54158;DHT22;40065;49.894;10.358;2023-03-11T10:06:18;4.70;96.50
54158;DHT22;40065;49.894;10.358;2023-03-11T10:21:55;5.20;95.60
54158;DHT22;40065;49.894;10.358;2023-03-11T10:27:08;5.10;94.00
54158;DHT22;40065;49.894;10.358;2023-03-11T10:32:27;5.70;94.80
54158;DHT22;40065;49.894;10.358;2023-03-11T10:37:40;5.70;93.30
54158;DHT22;40065;49.894;10.358;2023-03-11T10:42:51;5.60;94.80
54158;DHT22;40065;49.894;10.358;2023-03-11T10:47:55;5.90;94.10
54158;DHT22;40065;49.894;10.358;2023-03-11T10:53:09;6.10;94.00
54158;DHT22;40065;49.894;10.358;2023-03-11T10:58:17;6.50;93.70
54158;DHT22;40065;49.894;10.358;2023-03-11T11:03:22;6.20;93.10
54158;DHT22;40065;49.894;10.358;2023-03-11T11:08:24;7.20;92.70
54158;DHT22;40065;49.894;10.358;2023-03-11T11:13:30;6.60;91.90
54158;DHT22;40065;49.894;10.358;2023-03-11T11:18:44;6.00;93.50
54158;DHT22;40065;49.894;10.358;2023-03-11T11:29:13;5.10;95.90
54158;DHT22;40065;49.894;10.358;2023-03-11T11:34:31;4.70;96.70
54158;DHT22;40065;49.894;10.358;2023-03-11T11:39:46;5.00;95.70
54158;DHT22;40065;49.894;10.358;2023-03-11T11:44:58;4.80;95.10
54158;DHT22;40065;49.894;10.358;2023-03-11T11:50:04;5.10;95.30
54158;DHT22;40065;49.894;10.358;2023-03-11T11:55:17;5.10;94.80
54158;DHT22;40065;49.894;10.358;2023-03-11T12:00:23;5.40;93.80
54158;DHT22;40065;49.894;10.358;2023-03-11T12:05:40;5.70;92.50
54158;DHT22;40065;49.894;10.358;2023-03-11T12:26:31;6.70;90.40
54158;DHT22;40065;49.894;10.358;2023-03-11T12:31:36;6.70;91.00
54158;DHT22;40065;49.894;10.358;2023-03-11T12:36:44;6.90;90.10
54158;DHT22;40065;49.894;10.358;2023-03-11T12:41:46;6.90;90.10
54158;DHT22;40065;49.894;10.358;2023-03-11T12:52:21;6.20;92.00
54158;DHT22;40065;49.894;10.358;2023-03-11T13:02:44;5.90;91.40
54158;DHT22;40065;49.894;10.358;2023-03-11T13:12:57;5.90;91.50
54158;DHT22;40065;49.894;10.358;2023-03-11T13:33:26;5.90;92.80
54158;DHT22;40065;49.894;10.358;2023-03-11T13:38:38;6.30;92.30
54158;DHT22;40065;49.894;10.358;2023-03-11T13:43:47;6.40;91.20
54158;DHT22;40065;49.894;10.358;2023-03-11T13:48:53;6.50;92.00
54158;DHT22;40065;49.894;10.358;2023-03-11T13:54:13;6.50;90.90
54158;DHT22;40065;49.894;10.358;2023-03-11T13:59:28;6.80;90.20
54158;DHT22;40065;49.894;10.358;2023-03-11T14:04:32;7.40;88.30
54158;DHT22;40065;49.894;10.358;2023-03-11T14:09:34;7.70;90.20
54158;DHT22;40065;49.894;10.358;2023-03-11T14:14:50;7.70;89.70
54158;DHT22;40065;49.894;10.358;2023-03-11T14:20:12;7.50;90.40
54158;DHT22;40065;49.894;10.358;2023-03-11T14:25:26;7.00;90.00
54158;DHT22;40065;49.894;10.358;2023-03-11T14:30:30;6.70;90.30
54158;DHT22;40065;49.894;10.358;2023-03-11T14:35:33;6.50;90.50
54158;DHT22;40065;49.894;10.358;2023-03-11T14:40:35;6.40;90.80
54158;DHT22;40065;49.894;10.358;2023-03-11T14:45:41;6.00;91.30
54158;DHT22;40065;49.894;10.358;2023-03-11T14:50:44;5.70;90.70
54158;DHT22;40065;49.894;10.358;2023-03-11T14:55:57;5.90;91.60
54158;DHT22;40065;49.894;10.358;2023-03-11T15:06:12;5.50;92.70
54158;DHT22;40065;49.894;10.358;2023-03-11T15:16:34;5.40;92.90
54158;DHT22;40065;49.894;10.358;2023-03-11T15:21:44;5.10;92.30
54158;DHT22;40065;49.894;10.358;2023-03-11T15:31:59;5.40;91.70
54158;DHT22;40065;49.894;10.358;2023-03-11T15:37:17;5.40;92.10
54158;DHT22;40065;49.894;10.358;2023-03-11T15:42:22;5.70;92.20
54158;DHT22;40065;49.894;10.358;2023-03-11T15:47:25;5.30;92.10
54158;DHT22;40065;49.894;10.358;2023-03-11T15:52:27;5.30;91.80
54158;DHT22;40065;49.894;10.358;2023-03-11T15:57:29;5.20;92.50
54158;DHT22;40065;49.894;10.358;2023-03-11T16:02:31;5.40;92.70
54158;DHT22;40065;49.894;10.358;2023-03-11T16:07:33;5.30;92.40
54158;DHT22;40065;49.894;10.358;2023-03-11T16:12:40;5.30;92.90
54158;DHT22;40065;49.894;10.358;2023-03-11T16:17:45;5.10;92.30
54158;DHT22;40065;49.894;10.358;2023-03-11T16:22:55;5.00;92.40
54158;DHT22;40065;49.894;10.358;2023-03-11T16:27:59;4.90;93.40
54158;DHT22;40065;49.894;10.358;2023-03-11T16:33:01;5.00;93.80
54158;DHT22;40065;49.894;10.358;2023-03-11T16:38:06;5.00;94.40
54158;DHT22;40065;49.894;10.358;2023-03-11T16:43:10;5.00;93.30
54158;DHT22;40065;49.894;10.358;2023-03-11T16:48:14;4.90;93.50
54158;DHT22;40065;49.894;10.358;2023-03-11T16:53:16;4.80;94.10
54158;DHT22;40065;49.894;10.358;2023-03-11T16:58:18;4.60;94.60
54158;DHT22;40065;49.894;10.358;2023-03-11T17:03:20;4.60;95.10
54158;DHT22;40065;49.894;10.358;2023-03-11T17:08:22;4.50;95.40
54158;DHT22;40065;49.894;10.358;2023-03-11T17:13:25;4.40;96.00
54158;DHT22;40065;49.894;10.358;2023-03-11T17:18:27;4.40;96.50
54158;DHT22;40065;49.894;10.358;2023-03-11T17:23:29;4.40;96.90
54158;DHT22;40065;49.894;10.358;2023-03-11T17:28:33;4.30;96.70
54158;DHT22;40065;49.894;10.358;2023-03-11T17:33:34;4.40;97.00
54158;DHT22;40065;49.894;10.358;2023-03-11T17:38:36;4.40;97.60
54158;DHT22;40065;49.894;10.358;2023-03-11T17:43:39;4.10;98.30
54158;DHT22;40065;49.894;10.358;2023-03-11T17:48:45;3.90;99.20
54158;DHT22;40065;49.894;10.358;2023-03-11T17:53:48;3.90;98.90
54158;DHT22;40065;49.894;10.358;2023-03-11T17:58:50;3.70;99.90
54158;DHT22;40065;49.894;10.358;2023-03-11T18:03:52;3.60;99.90
54158;DHT22;40065;49.894;10.358;2023-03-11T18:08:54;3.40;99.90
54158;DHT22;40065;49.894;10.358;2023-03-11T18:13:56;3.30;99.90
54158;DHT22;40065;49.894;10.358;2023-03-11T18:18:59;3.10;99.90
54158;DHT22;40065;49.894;10.358;2023-03-11T18:24:00;3.00;99.90
54158;DHT22;40065;49.894;10.358;2023-03-11T18:29:02;3.10;99.90
54158;DHT22;40065;49.894;10.358;2023-03-11T18:34:04;3.00;99.90
54158;DHT22;40065;49.894;10.358;2023-03-11T18:39:12;2.80;99.90
54158;DHT22;40065;49.894;10.358;2023-03-11T18:44:14;2.80;99.90
54158;DHT22;40065;49.894;10.358;2023-03-11T18:49:16;2.50;99.90
54158;DHT22;40065;49.894;10.358;2023-03-11T18:54:18;2.40;99.90
54158;DHT22;40065;49.894;10.358;2023-03-11T18:59:20;2.20;99.90
54158;DHT22;40065;49.894;10.358;2023-03-11T19:04:22;2.10;99.90
54158;DHT22;40065;49.894;10.358;2023-03-11T19:09:23;2.00;99.90
54158;DHT22;40065;49.894;10.358;2023-03-11T19:14:25;1.90;99.90
54158;DHT22;40065;49.894;10.358;2023-03-11T19:19:27;1.80;99.90
54158;DHT22;40065;49.894;10.358;2023-03-11T19:24:29;1.80;99.90
54158;DHT22;40065;49.894;10.358;2023-03-11T19:29:31;1.70;99.90
54158;DHT22;40065;49.894;10.358;2023-03-11T19:34:33;1.50;99.90
54158;DHT22;40065;49.894;10.358;2023-03-11T19:39:35;1.30;99.90
54158;DHT22;40065;49.894;10.358;2023-03-11T19:44:36;1.20;99.90
54158;DHT22;40065;49.894;10.358;2023-03-11T19:49:38;1.30;99.90
54158;DHT22;40065;49.894;10.358;2023-03-11T19:54:40;1.20;99.90
54158;DHT22;40065;49.894;10.358;2023-03-11T19:59:42;1.50;99.90
54158;DHT22;40065;49.894;10.358;2023-03-11T20:04:44;1.50;99.90
54158;DHT22;40065;49.894;10.358;2023-03-11T20:09:46;1.40;99.90
54158;DHT22;40065;49.894;10.358;2023-03-11T20:14:48;1.40;99.90
54158;DHT22;40065;49.894;10.358;2023-03-11T20:19:49;1.20;99.90
54158;DHT22;40065;49.894;10.358;2023-03-11T20:24:51;1.20;99.90
54158;DHT22;40065;49.894;10.358;2023-03-11T20:29:53;1.20;99.90
54158;DHT22;40065;49.894;10.358;2023-03-11T20:34:55;1.10;99.90
54158;DHT22;40065;49.894;10.358;2023-03-11T20:39:57;1.10;99.90
54158;DHT22;40065;49.894;10.358;2023-03-11T20:44:59;1.10;99.90
54158;DHT22;40065;49.894;10.358;2023-03-11T20:50:01;1.10;99.90
54158;DHT22;40065;49.894;10.358;2023-03-11T20:55:04;1.10;99.90
54158;DHT22;40065;49.894;10.358;2023-03-11T21:00:10;1.20;99.90
54158;DHT22;40065;49.894;10.358;2023-03-11T21:05:13;1.00;99.90
54158;DHT22;40065;49.894;10.358;2023-03-11T21:10:15;0.80;99.90
54158;DHT22;40065;49.894;10.358;2023-03-11T21:15:17;0.70;99.90
54158;DHT22;40065;49.894;10.358;2023-03-11T21:20:19;0.50;99.90
54158;DHT22;40065;49.894;10.358;2023-03-11T21:25:21;0.40;99.90
54158;DHT22;40065;49.894;10.358;2023-03-11T21:30:23;0.50;99.90
54158;DHT22;40065;49.894;10.358;2023-03-11T21:35:26;0.60;99.90
54158;DHT22;40065;49.894;10.358;2023-03-11T21:40:29;0.70;99.90
54158;DHT22;40065;49.894;10.358;2023-03-11T21:45:30;1.00;99.90
54158;DHT22;40065;49.894;10.358;2023-03-11T21:50:32;0.90;99.90
54158;DHT22;40065;49.894;10.358;2023-03-11T21:55:34;1.00;99.90
54158;DHT22;40065;49.894;10.358;2023-03-11T22:00:36;0.90;99.90
54158;DHT22;40065;49.894;10.358;2023-03-11T22:05:38;1.00;99.90
54158;DHT22;40065;49.894;10.358;2023-03-11T22:10:40;0.70;99.90
54158;DHT22;40065;49.894;10.358;2023-03-11T22:15:42;0.80;99.90
54158;DHT22;40065;49.894;10.358;2023-03-11T22:20:44;1.10;99.90
54158;DHT22;40065;49.894;10.358;2023-03-11T22:25:46;1.20;99.90
54158;DHT22;40065;49.894;10.358;2023-03-11T22:30:48;1.30;99.90
54158;DHT22;40065;49.894;10.358;2023-03-11T22:35:55;1.10;99.90
54158;DHT22;40065;49.894;10.358;2023-03-11T22:40:57;0.90;99.90
54158;DHT22;40065;49.894;10.358;2023-03-11T22:46:01;0.80;99.90
54158;DHT22;40065;49.894;10.358;2023-03-11T22:51:04;0.50;99.90
54158;DHT22;40065;49.894;10.358;2023-03-11T22:56:11;0.50;99.90
54158;DHT22;40065;49.894;10.358;2023-03-11T23:01:13;0.40;99.90
54158;DHT22;40065;49.894;10.358;2023-03-11T23:06:19;0.20;99.90
54158;DHT22;40065;49.894;10.358;2023-03-11T23:11:21;0.30;99.90
54158;DHT22;40065;49.894;10.358;2023-03-11T23:16:24;0.60;99.90
54158;DHT22;40065;49.894;10.358;2023-03-11T23:21:29;0.60;99.90
54158;DHT22;40065;49.894;10.358;2023-03-11T23:26:32;0.30;99.90
54158;DHT22;40065;49.894;10.358;2023-03-11T23:31:35;0.30;99.90
54158;DHT22;40065;49.894;10.358;2023-03-11T23:36:37;0.40;99.90
54158;DHT22;40065;49.894;10.358;2023-03-11T23:41:38;0.40;99.90
54158;DHT22;40065;49.894;10.358;2023-03-11T23:46:40;0.30;99.90
54158;DHT22;40065;49.894;10.358;2023-03-11T23:51:42;0.00;99.90
54158;DHT22;40065;49.894;10.358;2023-03-11T23:56:44;0.40;99.90
